sensor_id;sensor_type;location;lat;lon;timestamp;pressure;altitude;pressure_sealevel;temperature;humidity
25759;BME280;13604;52.496;13.456;2023-07-13T00:01:47;100840.81;;;18.45;64.28
25759;BME280;13604;52.496;13.456;2023-07-13T00:04:17;100768.84;;;17.91;64.40
25759;BME280;13604;52.496;13.456;2023-07-13T00:06:43;100783.06;;;18.00;64.44
25759;BME280;13604;52.496;13.456;2023-07-13T00:09:15;100840.84;;;18.46;64.26
25759;BME280;13604;52.496;13.456;2023-07-13T00:11:43;100711.31;;;17.62;64.26
25759;BME280;13604;52.496;13.456;2023-07-13T00:14:09;100841.63;;;18.37;64.77
25759;BME280;13604;52.496;13.456;2023-07-13T00:16:35;100847.66;;;18.32;64.75
25759;BME280;13604;52.496;13.456;2023-07-13T00:19:02;100802.38;;;17.99;65.29
25759;BME280;13604;52.496;13.456;2023-07-13T00:21:30;100748.75;;;17.44;65.96
25759;BME280;13604;52.496;13.456;2023-07-13T00:23:56;100833.72;;;17.85;65.85
25759;BME280;13604;52.496;13.456;2023-07-13T00:26:21;100823.34;;;17.92;66.35
25759;BME280;13604;52.496;13.456;2023-07-13T00:28:50;100761.13;;;17.50;66.35
25759;BME280;13604;52.496;13.456;2023-07-13T00:31:15;100754.75;;;17.34;66.66
25759;BME280;13604;52.496;13.456;2023-07-13T00:33:41;100855.78;;;17.89;66.55
25759;BME280;13604;52.496;13.456;2023-07-13T00:36:09;100805.31;;;17.67;66.18
25759;BME280;13604;52.496;13.456;2023-07-13T00:38:35;100775.84;;;17.38;66.61
25759;BME280;13604;52.496;13.456;2023-07-13T00:41:01;100824.59;;;17.63;66.31
25759;BME280;13604;52.496;13.456;2023-07-13T00:43:27;100703.88;;;16.86;66.77
25759;BME280;13604;52.496;13.456;2023-07-13T00:46:09;100861.63;;;17.74;66.95
25759;BME280;13604;52.496;13.456;2023-07-13T00:48:36;100860.66;;;17.69;67.20
25759;BME280;13604;52.496;13.456;2023-07-13T00:51:02;100809.88;;;17.26;67.65
25759;BME280;13604;52.496;13.456;2023-07-13T00:53:29;100805.41;;;17.23;67.85
25759;BME280;13604;52.496;13.456;2023-07-13T00:55:58;100856.81;;;17.50;67.98
25759;BME280;13604;52.496;13.456;2023-07-13T00:58:25;100703.81;;;16.40;68.80
25759;BME280;13604;52.496;13.456;2023-07-13T01:00:51;100807.34;;;16.86;69.25
25759;BME280;13604;52.496;13.456;2023-07-13T01:03:19;100692.09;;;16.24;69.49
25759;BME280;13604;52.496;13.456;2023-07-13T01:05:47;100685.66;;;16.10;69.09
25759;BME280;13604;52.496;13.456;2023-07-13T01:08:13;100862.31;;;17.17;68.93
25759;BME280;13604;52.496;13.456;2023-07-13T01:10:39;100713.13;;;16.24;68.94
25759;BME280;13604;52.496;13.456;2023-07-13T01:13:06;100868.25;;;17.06;69.33
25759;BME280;13604;52.496;13.456;2023-07-13T01:15:43;100869.91;;;17.01;69.74
25759;BME280;13604;52.496;13.456;2023-07-13T01:18:17;100837.03;;;16.84;69.95
25759;BME280;13604;52.496;13.456;2023-07-13T01:21:13;100839.50;;;16.74;70.45
25759;BME280;13604;52.496;13.456;2023-07-13T01:23:38;100834.88;;;16.64;71.03
25759;BME280;13604;52.496;13.456;2023-07-13T01:26:03;100824.84;;;16.46;71.24
25759;BME280;13604;52.496;13.456;2023-07-13T01:28:29;100831.69;;;16.40;71.48
25759;BME280;13604;52.496;13.456;2023-07-13T01:30:56;100852.19;;;16.54;71.74
25759;BME280;13604;52.496;13.456;2023-07-13T01:33:23;100833.38;;;16.36;72.31
25759;BME280;13604;52.496;13.456;2023-07-13T01:35:48;100816.44;;;16.23;72.93
25759;BME280;13604;52.496;13.456;2023-07-13T01:38:18;100752.25;;;15.75;72.92
25759;BME280;13604;52.496;13.456;2023-07-13T01:40:45;100744.22;;;15.69;73.26
25759;BME280;13604;52.496;13.456;2023-07-13T01:43:11;100737.84;;;15.58;73.69
25759;BME280;13604;52.496;13.456;2023-07-13T01:45:36;100861.28;;;16.31;73.73
25759;BME280;13604;52.496;13.456;2023-07-13T01:48:02;100697.69;;;15.27;74.45
25759;BME280;13604;52.496;13.456;2023-07-13T01:50:28;100764.84;;;15.54;75.08
25759;BME280;13604;52.496;13.456;2023-07-13T01:52:55;100697.63;;;15.24;75.74
25759;BME280;13604;52.496;13.456;2023-07-13T01:55:21;100733.31;;;15.52;75.47
25759;BME280;13604;52.496;13.456;2023-07-13T01:57:47;100739.53;;;15.57;75.72
25759;BME280;13604;52.496;13.456;2023-07-13T02:00:12;100765.28;;;15.71;75.48
25759;BME280;13604;52.496;13.456;2023-07-13T02:02:39;100780.88;;;15.64;75.91
25759;BME280;13604;52.496;13.456;2023-07-13T02:05:06;100728.38;;;15.31;76.38
25759;BME280;13604;52.496;13.456;2023-07-13T02:07:33;100767.59;;;15.58;76.73
25759;BME280;13604;52.496;13.456;2023-07-13T02:09:58;100678.75;;;15.04;76.98
25759;BME280;13604;52.496;13.456;2023-07-13T02:12:23;100850.13;;;16.03;77.27
25759;BME280;13604;52.496;13.456;2023-07-13T02:14:50;100687.03;;;14.86;77.52
25759;BME280;13604;52.496;13.456;2023-07-13T02:17:15;100745.63;;;15.20;77.82
25759;BME280;13604;52.496;13.456;2023-07-13T02:19:40;100703.88;;;14.96;78.08
25759;BME280;13604;52.496;13.456;2023-07-13T02:22:06;100715.56;;;15.07;78.58
25759;BME280;13604;52.496;13.456;2023-07-13T02:24:31;100723.13;;;14.96;78.86
25759;BME280;13604;52.496;13.456;2023-07-13T02:26:56;100852.25;;;15.83;79.78
25759;BME280;13604;52.496;13.456;2023-07-13T02:29:23;100762.44;;;15.28;79.73
25759;BME280;13604;52.496;13.456;2023-07-13T02:31:48;100825.47;;;15.63;80.31
25759;BME280;13604;52.496;13.456;2023-07-13T02:34:14;100840.59;;;15.73;80.34
25759;BME280;13604;52.496;13.456;2023-07-13T02:36:39;100724.28;;;15.07;80.45
25759;BME280;13604;52.496;13.456;2023-07-13T02:39:05;100790.75;;;15.40;81.01
25759;BME280;13604;52.496;13.456;2023-07-13T02:41:31;100811.56;;;15.34;80.92
25759;BME280;13604;52.496;13.456;2023-07-13T02:43:58;100857.16;;;15.71;81.17
25759;BME280;13604;52.496;13.456;2023-07-13T02:46:28;100817.91;;;15.42;81.16
25759;BME280;13604;52.496;13.456;2023-07-13T02:48:54;100735.44;;;14.99;81.61
25759;BME280;13604;52.496;13.456;2023-07-13T02:51:20;100731.84;;;14.95;82.21
25759;BME280;13604;52.496;13.456;2023-07-13T02:53:46;100824.19;;;15.49;82.38
25759;BME280;13604;52.496;13.456;2023-07-13T02:56:13;100735.41;;;14.97;81.32
25759;BME280;13604;52.496;13.456;2023-07-13T02:58:39;100705.59;;;14.94;81.20
25759;BME280;13604;52.496;13.456;2023-07-13T03:01:09;100834.22;;;15.63;81.56
25759;BME280;13604;52.496;13.456;2023-07-13T03:03:35;100843.00;;;15.65;81.81
25759;BME280;13604;52.496;13.456;2023-07-13T03:06:02;100815.16;;;15.37;81.93
25759;BME280;13604;52.496;13.456;2023-07-13T03:08:29;100886.31;;;15.80;82.17
25759;BME280;13604;52.496;13.456;2023-07-13T03:11:09;100853.28;;;15.56;82.20
25759;BME280;13604;52.496;13.456;2023-07-13T03:13:36;100856.03;;;15.61;82.39
25759;BME280;13604;52.496;13.456;2023-07-13T03:16:02;100786.31;;;15.05;83.94
25759;BME280;13604;52.496;13.456;2023-07-13T03:18:29;100848.59;;;15.44;84.10
25759;BME280;13604;52.496;13.456;2023-07-13T03:20:54;100889.56;;;15.71;85.60
25759;BME280;13604;52.496;13.456;2023-07-13T03:23:21;100890.38;;;15.70;84.60
25759;BME280;13604;52.496;13.456;2023-07-13T03:25:47;100794.41;;;15.15;84.77
25759;BME280;13604;52.496;13.456;2023-07-13T03:28:14;100728.69;;;14.77;85.23
25759;BME280;13604;52.496;13.456;2023-07-13T03:30:41;100884.81;;;15.58;84.67
25759;BME280;13604;52.496;13.456;2023-07-13T03:33:07;100879.13;;;15.74;84.15
25759;BME280;13604;52.496;13.456;2023-07-13T03:35:35;100905.78;;;15.88;83.39
25759;BME280;13604;52.496;13.456;2023-07-13T03:38:00;100896.09;;;15.86;83.24
25759;BME280;13604;52.496;13.456;2023-07-13T03:40:27;100768.22;;;15.16;83.35
25759;BME280;13604;52.496;13.456;2023-07-13T03:42:53;100912.19;;;15.99;83.25
25759;BME280;13604;52.496;13.456;2023-07-13T03:45:18;100869.78;;;15.84;83.49
25759;BME280;13604;52.496;13.456;2023-07-13T03:47:44;100900.94;;;16.04;83.07
25759;BME280;13604;52.496;13.456;2023-07-13T03:50:10;100900.81;;;15.99;83.40
25759;BME280;13604;52.496;13.456;2023-07-13T03:52:35;100871.88;;;15.97;83.20
25759;BME280;13604;52.496;13.456;2023-07-13T03:55:01;100762.84;;;15.43;82.94
25759;BME280;13604;52.496;13.456;2023-07-13T03:57:26;100777.03;;;15.52;82.90
25759;BME280;13604;52.496;13.456;2023-07-13T03:59:51;100781.50;;;15.56;82.48
25759;BME280;13604;52.496;13.456;2023-07-13T04:02:17;100850.81;;;15.96;82.77
25759;BME280;13604;52.496;13.456;2023-07-13T04:04:43;100923.69;;;16.40;82.69
25759;BME280;13604;52.496;13.456;2023-07-13T04:07:08;100886.72;;;16.32;82.20
25759;BME280;13604;52.496;13.456;2023-07-13T04:09:34;100785.16;;;15.61;81.76
25759;BME280;13604;52.496;13.456;2023-07-13T04:12:00;100738.78;;;15.61;81.60
25759;BME280;13604;52.496;13.456;2023-07-13T04:14:25;100802.88;;;16.05;81.09
25759;BME280;13604;52.496;13.456;2023-07-13T04:16:51;100791.44;;;16.03;80.61
25759;BME280;13604;52.496;13.456;2023-07-13T04:19:17;100819.97;;;16.24;79.65
25759;BME280;13604;52.496;13.456;2023-07-13T04:21:44;100767.56;;;15.93;79.78
25759;BME280;13604;52.496;13.456;2023-07-13T04:24:11;100746.41;;;15.86;78.97
25759;BME280;13604;52.496;13.456;2023-07-13T04:26:36;100776.59;;;16.05;78.58
25759;BME280;13604;52.496;13.456;2023-07-13T04:29:03;100793.75;;;16.27;78.24
25759;BME280;13604;52.496;13.456;2023-07-13T04:31:30;100765.34;;;16.09;78.15
25759;BME280;13604;52.496;13.456;2023-07-13T04:33:56;100938.59;;;17.15;77.85
25759;BME280;13604;52.496;13.456;2023-07-13T04:36:22;100809.34;;;16.59;77.63
25759;BME280;13604;52.496;13.456;2023-07-13T04:38:47;100827.19;;;16.73;77.64
25759;BME280;13604;52.496;13.456;2023-07-13T04:41:14;100798.06;;;16.64;77.29
25759;BME280;13604;52.496;13.456;2023-07-13T04:43:40;100832.56;;;16.78;77.14
25759;BME280;13604;52.496;13.456;2023-07-13T04:46:08;100758.38;;;16.52;76.60
25759;BME280;13604;52.496;13.456;2023-07-13T04:48:33;100880.22;;;17.35;75.57
25759;BME280;13604;52.496;13.456;2023-07-13T04:50:59;100915.78;;;17.58;75.18
25759;BME280;13604;52.496;13.456;2023-07-13T04:53:25;100943.44;;;17.82;74.90
25759;BME280;13604;52.496;13.456;2023-07-13T04:55:51;100881.38;;;17.49;73.97
25759;BME280;13604;52.496;13.456;2023-07-13T04:58:16;100946.13;;;17.85;73.72
25759;BME280;13604;52.496;13.456;2023-07-13T05:00:42;100947.31;;;17.99;73.87
25759;BME280;13604;52.496;13.456;2023-07-13T05:03:07;100904.91;;;17.87;73.87
25759;BME280;13604;52.496;13.456;2023-07-13T05:05:33;100945.72;;;18.11;73.39
25759;BME280;13604;52.496;13.456;2023-07-13T05:07:59;100953.00;;;18.23;72.72
25759;BME280;13604;52.496;13.456;2023-07-13T05:10:24;100931.72;;;18.13;72.28
25759;BME280;13604;52.496;13.456;2023-07-13T05:12:49;100966.50;;;18.43;71.77
25759;BME280;13604;52.496;13.456;2023-07-13T05:15:15;100961.34;;;18.50;72.01
25759;BME280;13604;52.496;13.456;2023-07-13T05:17:41;100937.56;;;18.47;71.26
25759;BME280;13604;52.496;13.456;2023-07-13T05:20:08;100954.53;;;18.65;70.77
25759;BME280;13604;52.496;13.456;2023-07-13T05:22:33;100940.44;;;18.63;70.63
25759;BME280;13604;52.496;13.456;2023-07-13T05:25:01;100959.06;;;18.72;69.92
25759;BME280;13604;52.496;13.456;2023-07-13T05:27:26;100964.38;;;18.76;69.10
25759;BME280;13604;52.496;13.456;2023-07-13T05:29:51;100936.03;;;18.63;68.94
25759;BME280;13604;52.496;13.456;2023-07-13T05:32:17;100907.75;;;18.53;68.21
25759;BME280;13604;52.496;13.456;2023-07-13T05:34:43;100940.69;;;18.80;68.08
25759;BME280;13604;52.496;13.456;2023-07-13T05:37:08;100926.41;;;18.65;69.57
25759;BME280;13604;52.496;13.456;2023-07-13T05:39:33;100909.72;;;18.66;67.28
25759;BME280;13604;52.496;13.456;2023-07-13T05:41:59;100819.53;;;18.29;67.76
25759;BME280;13604;52.496;13.456;2023-07-13T05:44:24;100810.81;;;18.35;68.36
25759;BME280;13604;52.496;13.456;2023-07-13T05:46:49;100822.50;;;18.52;66.76
25759;BME280;13604;52.496;13.456;2023-07-13T05:49:15;100967.16;;;19.48;67.23
25759;BME280;13604;52.496;13.456;2023-07-13T05:51:42;100973.41;;;19.57;67.36
25759;BME280;13604;52.496;13.456;2023-07-13T05:54:09;100854.78;;;18.99;66.48
25759;BME280;13604;52.496;13.456;2023-07-13T05:56:34;100963.72;;;19.59;65.26
25759;BME280;13604;52.496;13.456;2023-07-13T05:59:00;100808.91;;;18.89;64.05
25759;BME280;13604;52.496;13.456;2023-07-13T06:01:25;100942.66;;;19.63;64.03
25759;BME280;13604;52.496;13.456;2023-07-13T06:03:50;100913.38;;;19.43;63.76
25759;BME280;13604;52.496;13.456;2023-07-13T06:06:16;100919.47;;;19.36;63.74
25759;BME280;13604;52.496;13.456;2023-07-13T06:08:41;100967.38;;;19.68;65.31
25759;BME280;13604;52.496;13.456;2023-07-13T06:11:15;100938.09;;;19.48;63.98
25759;BME280;13604;52.496;13.456;2023-07-13T06:13:40;100952.22;;;19.52;64.19
25759;BME280;13604;52.496;13.456;2023-07-13T06:16:06;100887.53;;;19.18;64.14
25759;BME280;13604;52.496;13.456;2023-07-13T06:18:33;100918.63;;;19.40;64.11
25759;BME280;13604;52.496;13.456;2023-07-13T06:20:59;100875.19;;;19.12;64.00
25759;BME280;13604;52.496;13.456;2023-07-13T06:23:25;100730.91;;;18.39;64.84
25759;BME280;13604;52.496;13.456;2023-07-13T06:25:50;100909.00;;;19.45;64.39
25759;BME280;13604;52.496;13.456;2023-07-13T06:28:16;100948.03;;;19.71;63.53
25759;BME280;13604;52.496;13.456;2023-07-13T06:30:41;100912.72;;;19.63;64.48
25759;BME280;13604;52.496;13.456;2023-07-13T06:33:06;100837.59;;;19.33;63.51
25759;BME280;13604;52.496;13.456;2023-07-13T06:35:32;100939.53;;;20.00;62.01
25759;BME280;13604;52.496;13.456;2023-07-13T06:37:57;100946.69;;;20.09;61.86
25759;BME280;13604;52.496;13.456;2023-07-13T06:40:22;100945.03;;;20.18;61.83
25759;BME280;13604;52.496;13.456;2023-07-13T06:42:47;100937.94;;;20.17;60.99
25759;BME280;13604;52.496;13.456;2023-07-13T06:45:13;100955.66;;;20.29;62.31
25759;BME280;13604;52.496;13.456;2023-07-13T06:47:38;100936.31;;;20.30;62.09
25759;BME280;13604;52.496;13.456;2023-07-13T06:50:04;100959.41;;;20.53;61.99
25759;BME280;13604;52.496;13.456;2023-07-13T06:52:29;100975.41;;;20.68;60.69
25759;BME280;13604;52.496;13.456;2023-07-13T06:54:54;100952.53;;;20.73;60.55
25759;BME280;13604;52.496;13.456;2023-07-13T06:57:20;100935.69;;;20.65;58.83
25759;BME280;13604;52.496;13.456;2023-07-13T06:59:45;100974.69;;;20.89;58.46
25759;BME280;13604;52.496;13.456;2023-07-13T07:02:10;100964.13;;;20.92;58.64
25759;BME280;13604;52.496;13.456;2023-07-13T07:04:36;100977.34;;;20.92;58.06
25759;BME280;13604;52.496;13.456;2023-07-13T07:07:02;100940.22;;;20.80;57.53
25759;BME280;13604;52.496;13.456;2023-07-13T07:09:27;100967.66;;;20.93;56.23
25759;BME280;13604;52.496;13.456;2023-07-13T07:11:54;100963.28;;;21.01;57.19
25759;BME280;13604;52.496;13.456;2023-07-13T07:14:19;100970.47;;;21.22;57.61
25759;BME280;13604;52.496;13.456;2023-07-13T07:16:45;100967.00;;;21.39;56.97
25759;BME280;13604;52.496;13.456;2023-07-13T07:19:10;100941.38;;;21.36;55.39
25759;BME280;13604;52.496;13.456;2023-07-13T07:21:36;100961.75;;;21.48;53.81
25759;BME280;13604;52.496;13.456;2023-07-13T07:24:01;100969.72;;;21.49;54.52
25759;BME280;13604;52.496;13.456;2023-07-13T07:26:28;100970.56;;;21.47;53.72
25759;BME280;13604;52.496;13.456;2023-07-13T07:28:53;100957.31;;;21.47;53.50
25759;BME280;13604;52.496;13.456;2023-07-13T07:31:18;100975.97;;;21.70;53.66
25759;BME280;13604;52.496;13.456;2023-07-13T07:33:44;100973.34;;;21.82;53.16
25759;BME280;13604;52.496;13.456;2023-07-13T07:36:09;100977.81;;;22.06;50.65
25759;BME280;13604;52.496;13.456;2023-07-13T07:38:35;100970.78;;;22.19;52.20
25759;BME280;13604;52.496;13.456;2023-07-13T07:41:04;100972.56;;;22.65;50.06
25759;BME280;13604;52.496;13.456;2023-07-13T07:43:30;100977.78;;;23.25;49.00
25759;BME280;13604;52.496;13.456;2023-07-13T07:45:56;100981.13;;;23.70;47.68
25759;BME280;13604;52.496;13.456;2023-07-13T07:48:21;100975.69;;;24.00;46.89
25759;BME280;13604;52.496;13.456;2023-07-13T07:50:47;100967.59;;;24.14;46.26
25759;BME280;13604;52.496;13.456;2023-07-13T07:53:12;100980.03;;;24.12;45.42
25759;BME280;13604;52.496;13.456;2023-07-13T07:55:38;100968.53;;;24.10;45.38
25759;BME280;13604;52.496;13.456;2023-07-13T07:58:05;100983.44;;;24.29;45.15
25759;BME280;13604;52.496;13.456;2023-07-13T08:00:30;100969.03;;;24.59;45.33
25759;BME280;13604;52.496;13.456;2023-07-13T08:02:57;100980.56;;;24.57;44.97
25759;BME280;13604;52.496;13.456;2023-07-13T08:05:22;100977.03;;;24.58;45.18
25759;BME280;13604;52.496;13.456;2023-07-13T08:07:47;100985.78;;;24.72;45.06
25759;BME280;13604;52.496;13.456;2023-07-13T08:10:13;100973.59;;;24.39;43.84
25759;BME280;13604;52.496;13.456;2023-07-13T08:12:39;100992.16;;;24.47;44.85
25759;BME280;13604;52.496;13.456;2023-07-13T08:15:07;100987.81;;;24.38;45.48
25759;BME280;13604;52.496;13.456;2023-07-13T08:17:34;100996.78;;;24.24;44.53
25759;BME280;13604;52.496;13.456;2023-07-13T08:20:00;100996.81;;;24.23;45.35
25759;BME280;13604;52.496;13.456;2023-07-13T08:22:25;100993.97;;;24.44;45.98
25759;BME280;13604;52.496;13.456;2023-07-13T08:29:47;100998.91;;;25.70;nan
25759;BME280;13604;52.496;13.456;2023-07-13T08:32:13;100998.09;;;25.63;nan
25759;BME280;13604;52.496;13.456;2023-07-13T08:34:39;100980.47;;;25.53;nan
25759;BME280;13604;52.496;13.456;2023-07-13T08:37:04;100997.84;;;25.80;nan
25759;BME280;13604;52.496;13.456;2023-07-13T08:39:31;100991.00;;;25.62;nan
25759;BME280;13604;52.496;13.456;2023-07-13T08:42:02;101014.09;;;25.65;nan
25759;BME280;13604;52.496;13.456;2023-07-13T08:47:40;100989.28;;;25.58;nan
25759;BME280;13604;52.496;13.456;2023-07-13T08:50:12;101006.75;;;25.81;nan
25759;BME280;13604;52.496;13.456;2023-07-13T08:52:40;100982.13;;;25.62;nan
25759;BME280;13604;52.496;13.456;2023-07-13T08:55:13;100989.00;;;25.78;nan
25759;BME280;13604;52.496;13.456;2023-07-13T08:57:41;101012.00;;;25.87;nan
25759;BME280;13604;52.496;13.456;2023-07-13T09:02:42;100999.66;;;25.04;43.22
25759;BME280;13604;52.496;13.456;2023-07-13T09:05:25;101011.59;;;24.64;43.83
25759;BME280;13604;52.496;13.456;2023-07-13T09:10:32;101014.56;;;27.05;nan
25759;BME280;13604;52.496;13.456;2023-07-13T09:13:18;101010.41;;;27.79;nan
25759;BME280;13604;52.496;13.456;2023-07-13T09:15:46;100995.44;;;29.16;nan
25759;BME280;13604;52.496;13.456;2023-07-13T09:18:20;101012.06;;;29.91;nan
25759;BME280;13604;52.496;13.456;2023-07-13T09:21:11;101017.34;;;29.95;nan
25759;BME280;13604;52.496;13.456;2023-07-13T09:23:37;101006.78;;;30.18;nan
25759;BME280;13604;52.496;13.456;2023-07-13T09:26:12;101013.44;;;29.75;nan
25759;BME280;13604;52.496;13.456;2023-07-13T09:28:41;101010.69;;;30.63;nan
25759;BME280;13604;52.496;13.456;2023-07-13T09:31:13;100986.72;;;30.82;nan
25759;BME280;13604;52.496;13.456;2023-07-13T09:33:39;101006.84;;;31.69;nan
25759;BME280;13604;52.496;13.456;2023-07-13T09:38:44;101000.78;;;32.75;nan
25759;BME280;13604;52.496;13.456;2023-07-13T09:41:44;101006.84;;;34.18;nan
25759;BME280;13604;52.496;13.456;2023-07-13T09:44:14;101018.34;;;33.85;nan
25759;BME280;13604;52.496;13.456;2023-07-13T09:46:52;101010.50;;;32.36;nan
25759;BME280;13604;52.496;13.456;2023-07-13T09:49:18;101015.81;;;30.69;nan
25759;BME280;13604;52.496;13.456;2023-07-13T09:51:43;101005.19;;;29.83;nan
25759;BME280;13604;52.496;13.456;2023-07-13T09:54:20;100992.63;;;30.92;nan
25759;BME280;13604;52.496;13.456;2023-07-13T09:56:46;101004.06;;;32.61;nan
25759;BME280;13604;52.496;13.456;2023-07-13T09:59:19;101015.53;;;32.45;nan
25759;BME280;13604;52.496;13.456;2023-07-13T10:02:35;101010.97;;;31.80;26.96
25759;BME280;13604;52.496;13.456;2023-07-13T10:05:14;101009.28;;;32.43;26.19
25759;BME280;13604;52.496;13.456;2023-07-13T10:07:44;101010.50;;;30.94;28.33
25759;BME280;13604;52.496;13.456;2023-07-13T10:10:18;101013.59;;;29.39;29.67
25759;BME280;13604;52.496;13.456;2023-07-13T10:12:45;101004.09;;;28.22;31.33
25759;BME280;13604;52.496;13.456;2023-07-13T10:15:17;101012.25;;;27.35;32.66
25759;BME280;13604;52.496;13.456;2023-07-13T10:17:43;101013.31;;;27.70;33.62
25759;BME280;13604;52.496;13.456;2023-07-13T10:20:09;100991.41;;;29.64;30.69
25759;BME280;13604;52.496;13.456;2023-07-13T10:22:59;101013.53;;;30.58;29.81
25759;BME280;13604;52.496;13.456;2023-07-13T10:25:32;101004.47;;;31.13;28.86
25759;BME280;13604;52.496;13.456;2023-07-13T10:28:03;101008.72;;;32.35;26.79
25759;BME280;13604;52.496;13.456;2023-07-13T10:30:35;101004.94;;;32.61;26.56
25759;BME280;13604;52.496;13.456;2023-07-13T10:33:10;100998.63;;;30.75;28.66
25759;BME280;13604;52.496;13.456;2023-07-13T10:35:40;101021.34;;;29.50;29.74
25759;BME280;13604;52.496;13.456;2023-07-13T10:38:11;101020.69;;;28.76;31.85
25759;BME280;13604;52.496;13.456;2023-07-13T10:40:39;100915.25;;;29.68;29.57
25759;BME280;13604;52.496;13.456;2023-07-13T10:43:15;100892.91;;;29.08;29.86
25759;BME280;13604;52.496;13.456;2023-07-13T10:45:45;101008.28;;;29.37;30.40
25759;BME280;13604;52.496;13.456;2023-07-13T10:48:12;101008.22;;;28.73;30.75
25759;BME280;13604;52.496;13.456;2023-07-13T10:50:42;101012.94;;;28.63;30.68
25759;BME280;13604;52.496;13.456;2023-07-13T10:53:27;100982.47;;;27.92;31.66
25759;BME280;13604;52.496;13.456;2023-07-13T10:58:37;101086.97;;;27.88;31.44
25759;BME280;13604;52.496;13.456;2023-07-13T11:03:38;100911.28;;;30.87;27.00
25759;BME280;13604;52.496;13.456;2023-07-13T11:06:16;100931.19;;;32.64;26.55
25759;BME280;13604;52.496;13.456;2023-07-13T11:13:58;100972.84;;;33.95;23.03
25759;BME280;13604;52.496;13.456;2023-07-13T11:16:37;101006.97;;;35.88;22.22
25759;BME280;13604;52.496;13.456;2023-07-13T11:21:29;100991.06;;;35.32;22.53
25759;BME280;13604;52.496;13.456;2023-07-13T11:26:42;100998.94;;;37.67;20.55
25759;BME280;13604;52.496;13.456;2023-07-13T11:31:39;100977.06;;;38.24;18.55
25759;BME280;13604;52.496;13.456;2023-07-13T11:34:13;100990.78;;;36.02;20.63
25759;BME280;13604;52.496;13.456;2023-07-13T11:36:44;100957.59;;;34.47;22.40
25759;BME280;13604;52.496;13.456;2023-07-13T11:39:25;100964.22;;;34.77;22.57
25759;BME280;13604;52.496;13.456;2023-07-13T11:41:58;100977.13;;;35.72;21.05
25759;BME280;13604;52.496;13.456;2023-07-13T11:44:26;100904.56;;;34.80;21.77
25759;BME280;13604;52.496;13.456;2023-07-13T11:46:56;100883.34;;;35.06;21.01
25759;BME280;13604;52.496;13.456;2023-07-13T11:49:24;100923.47;;;36.86;20.94
25759;BME280;13604;52.496;13.456;2023-07-13T11:51:52;100988.34;;;37.62;20.15
25759;BME280;13604;52.496;13.456;2023-07-13T11:54:43;100974.50;;;37.67;20.57
25759;BME280;13604;52.496;13.456;2023-07-13T11:57:26;100945.00;;;39.58;18.77
25759;BME280;13604;52.496;13.456;2023-07-13T11:59:53;100971.50;;;39.30;18.21
25759;BME280;13604;52.496;13.456;2023-07-13T12:02:31;100957.69;;;38.02;18.95
25759;BME280;13604;52.496;13.456;2023-07-13T12:04:59;100981.75;;;39.01;18.92
25759;BME280;13604;52.496;13.456;2023-07-13T12:07:28;100883.31;;;38.43;18.72
25759;BME280;13604;52.496;13.456;2023-07-13T12:10:00;100959.34;;;39.10;18.39
25759;BME280;13604;52.496;13.456;2023-07-13T12:12:28;100987.59;;;39.59;17.59
25759;BME280;13604;52.496;13.456;2023-07-13T12:14:54;100983.25;;;39.44;18.21
25759;BME280;13604;52.496;13.456;2023-07-13T12:17:25;100951.22;;;39.34;18.58
25759;BME280;13604;52.496;13.456;2023-07-13T12:19:52;100978.81;;;39.80;17.70
25759;BME280;13604;52.496;13.456;2023-07-13T12:22:19;100940.09;;;39.50;17.78
25759;BME280;13604;52.496;13.456;2023-07-13T12:24:46;100917.44;;;39.74;17.45
25759;BME280;13604;52.496;13.456;2023-07-13T12:27:26;100956.16;;;39.03;18.19
25759;BME280;13604;52.496;13.456;2023-07-13T12:30:03;100999.06;;;38.47;18.93
25759;BME280;13604;52.496;13.456;2023-07-13T12:32:31;100903.41;;;37.02;19.58
25759;BME280;13604;52.496;13.456;2023-07-13T12:35:16;100922.06;;;36.64;20.70
25759;BME280;13604;52.496;13.456;2023-07-13T12:37:43;100897.66;;;36.64;20.60
25759;BME280;13604;52.496;13.456;2023-07-13T12:40:14;100889.81;;;37.17;20.40
25759;BME280;13604;52.496;13.456;2023-07-13T12:42:40;100955.88;;;35.64;20.77
25759;BME280;13604;52.496;13.456;2023-07-13T12:45:27;100975.22;;;34.74;22.27
25759;BME280;13604;52.496;13.456;2023-07-13T12:48:05;100916.78;;;36.46;20.49
25759;BME280;13604;52.496;13.456;2023-07-13T12:50:37;100925.69;;;38.73;18.90
25759;BME280;13604;52.496;13.456;2023-07-13T12:53:05;100944.84;;;39.10;18.51
25759;BME280;13604;52.496;13.456;2023-07-13T12:55:53;100985.03;;;41.24;16.82
25759;BME280;13604;52.496;13.456;2023-07-13T12:58:27;100901.97;;;36.97;20.04
25759;BME280;13604;52.496;13.456;2023-07-13T13:00:55;100924.28;;;34.47;21.24
25759;BME280;13604;52.496;13.456;2023-07-13T13:03:26;100917.44;;;35.26;21.10
25759;BME280;13604;52.496;13.456;2023-07-13T13:05:58;100977.69;;;35.95;20.80
25759;BME280;13604;52.496;13.456;2023-07-13T13:08:24;100925.22;;;35.32;21.10
25759;BME280;13604;52.496;13.456;2023-07-13T13:10:50;100993.44;;;35.54;21.14
25759;BME280;13604;52.496;13.456;2023-07-13T13:13:15;100956.03;;;34.07;21.69
25759;BME280;13604;52.496;13.456;2023-07-13T13:15:40;100893.03;;;32.73;23.30
25759;BME280;13604;52.496;13.456;2023-07-13T13:18:17;100905.06;;;32.44;23.50
25759;BME280;13604;52.496;13.456;2023-07-13T13:20:44;100976.09;;;33.84;22.96
25759;BME280;13604;52.496;13.456;2023-07-13T13:23:13;100978.38;;;34.47;23.03